sensor_id;sensor_type;location;lat;lon;timestamp;P1;durP1;ratioP1;P2;durP2;ratioP2
19030;SDS011;9648;51.130;13.978;2022-07-25T00:01:04;2.35;;;2.15;;
19030;SDS011;9648;51.130;13.978;2022-07-25T00:03:31;2.60;;;2.00;;
19030;SDS011;9648;51.130;13.978;2022-07-25T00:05:57;3.70;;;2.45;;
19030;SDS011;9648;51.130;13.978;2022-07-25T00:08:24;2.58;;;2.10;;
19030;SDS011;9648;51.130;13.978;2022-07-25T00:10:51;3.80;;;2.50;;
19030;SDS011;9648;51.130;13.978;2022-07-25T00:13:19;2.25;;;2.00;;
19030;SDS011;9648;51.130;13.978;2022-07-25T00:15:45;2.50;;;2.30;;
19030;SDS011;9648;51.130;13.978;2022-07-25T00:18:12;2.80;;;2.40;;
19030;SDS011;9648;51.130;13.978;2022-07-25T00:20:39;2.67;;;2.30;;
19030;SDS011;9648;51.130;13.978;2022-07-25T00:23:05;3.55;;;2.60;;
19030;SDS011;9648;51.130;13.978;2022-07-25T00:25:32;3.95;;;2.97;;
19030;SDS011;9648;51.130;13.978;2022-07-25T00:27:58;3.40;;;2.80;;
19030;SDS011;9648;51.130;13.978;2022-07-25T00:30:26;3.53;;;2.88;;
19030;SDS011;9648;51.130;13.978;2022-07-25T00:32:53;4.32;;;3.00;;
19030;SDS011;9648;51.130;13.978;2022-07-25T00:35:19;4.00;;;3.03;;
19030;SDS011;9648;51.130;13.978;2022-07-25T00:37:46;4.20;;;2.80;;
19030;SDS011;9648;51.130;13.978;2022-07-25T00:40:13;3.58;;;2.85;;
19030;SDS011;9648;51.130;13.978;2022-07-25T00:42:39;3.17;;;2.65;;
19030;SDS011;9648;51.130;13.978;2022-07-25T00:45:06;3.53;;;2.72;;
19030;SDS011;9648;51.130;13.978;2022-07-25T00:47:35;3.83;;;2.80;;
19030;SDS011;9648;51.130;13.978;2022-07-25T00:50:02;3.35;;;2.67;;
19030;SDS011;9648;51.130;13.978;2022-07-25T00:52:29;3.65;;;3.00;;
19030;SDS011;9648;51.130;13.978;2022-07-25T00:54:56;3.55;;;3.00;;
19030;SDS011;9648;51.130;13.978;2022-07-25T00:57:22;5.05;;;3.13;;
19030;SDS011;9648;51.130;13.978;2022-07-25T00:59:49;3.42;;;3.10;;
19030;SDS011;9648;51.130;13.978;2022-07-25T01:02:16;4.18;;;3.30;;
19030;SDS011;9648;51.130;13.978;2022-07-25T01:04:44;3.95;;;3.13;;
19030;SDS011;9648;51.130;13.978;2022-07-25T01:07:11;4.50;;;3.20;;
19030;SDS011;9648;51.130;13.978;2022-07-25T01:09:38;4.70;;;3.42;;
19030;SDS011;9648;51.130;13.978;2022-07-25T01:12:05;4.93;;;3.42;;
19030;SDS011;9648;51.130;13.978;2022-07-25T01:14:32;5.15;;;3.50;;
19030;SDS011;9648;51.130;13.978;2022-07-25T01:16:58;4.27;;;3.50;;
19030;SDS011;9648;51.130;13.978;2022-07-25T01:19:25;3.70;;;3.20;;
19030;SDS011;9648;51.130;13.978;2022-07-25T01:21:53;4.43;;;3.55;;
19030;SDS011;9648;51.130;13.978;2022-07-25T01:24:20;4.22;;;3.47;;
19030;SDS011;9648;51.130;13.978;2022-07-25T01:26:47;4.43;;;3.55;;
19030;SDS011;9648;51.130;13.978;2022-07-25T01:29:13;4.03;;;3.50;;
19030;SDS011;9648;51.130;13.978;2022-07-25T01:31:40;4.85;;;3.80;;
19030;SDS011;9648;51.130;13.978;2022-07-25T01:34:07;4.82;;;3.67;;
19030;SDS011;9648;51.130;13.978;2022-07-25T01:36:33;5.03;;;3.80;;
19030;SDS011;9648;51.130;13.978;2022-07-25T01:39:02;5.65;;;3.60;;
19030;SDS011;9648;51.130;13.978;2022-07-25T01:41:28;5.00;;;3.90;;
19030;SDS011;9648;51.130;13.978;2022-07-25T01:43:55;4.50;;;3.70;;
19030;SDS011;9648;51.130;13.978;2022-07-25T01:46:22;6.82;;;3.95;;
19030;SDS011;9648;51.130;13.978;2022-07-25T01:48:49;5.03;;;3.95;;
19030;SDS011;9648;51.130;13.978;2022-07-25T01:51:15;4.57;;;3.95;;
19030;SDS011;9648;51.130;13.978;2022-07-25T01:53:42;5.22;;;4.00;;
19030;SDS011;9648;51.130;13.978;2022-07-25T01:56:10;5.00;;;4.00;;
19030;SDS011;9648;51.130;13.978;2022-07-25T01:58:37;4.75;;;3.70;;
19030;SDS011;9648;51.130;13.978;2022-07-25T02:01:03;4.57;;;3.83;;
19030;SDS011;9648;51.130;13.978;2022-07-25T02:03:30;5.07;;;4.10;;
19030;SDS011;9648;51.130;13.978;2022-07-25T02:05:57;5.15;;;3.80;;
19030;SDS011;9648;51.130;13.978;2022-07-25T02:08:25;4.95;;;3.97;;
19030;SDS011;9648;51.130;13.978;2022-07-25T02:10:52;4.70;;;4.00;;
19030;SDS011;9648;51.130;13.978;2022-07-25T02:13:20;5.07;;;4.03;;
19030;SDS011;9648;51.130;13.978;2022-07-25T02:15:47;5.20;;;4.13;;
19030;SDS011;9648;51.130;13.978;2022-07-25T02:18:14;5.90;;;4.40;;
19030;SDS011;9648;51.130;13.978;2022-07-25T02:20:40;5.38;;;4.28;;
19030;SDS011;9648;51.130;13.978;2022-07-25T02:23:07;5.40;;;4.30;;
19030;SDS011;9648;51.130;13.978;2022-07-25T02:25:34;5.75;;;4.38;;
19030;SDS011;9648;51.130;13.978;2022-07-25T02:28:01;5.20;;;4.40;;
19030;SDS011;9648;51.130;13.978;2022-07-25T02:30:30;5.90;;;4.38;;
19030;SDS011;9648;51.130;13.978;2022-07-25T02:32:56;5.10;;;4.60;;
19030;SDS011;9648;51.130;13.978;2022-07-25T02:35:24;5.00;;;4.30;;
19030;SDS011;9648;51.130;13.978;2022-07-25T02:37:50;4.85;;;4.13;;
19030;SDS011;9648;51.130;13.978;2022-07-25T02:40:17;5.70;;;4.25;;
19030;SDS011;9648;51.130;13.978;2022-07-25T02:42:43;5.35;;;4.30;;
19030;SDS011;9648;51.130;13.978;2022-07-25T02:45:10;5.80;;;4.43;;
19030;SDS011;9648;51.130;13.978;2022-07-25T02:47:39;4.50;;;4.10;;
19030;SDS011;9648;51.130;13.978;2022-07-25T02:50:06;5.30;;;4.10;;
19030;SDS011;9648;51.130;13.978;2022-07-25T02:52:33;4.65;;;3.70;;
19030;SDS011;9648;51.130;13.978;2022-07-25T02:55:00;5.03;;;3.90;;
19030;SDS011;9648;51.130;13.978;2022-07-25T02:57:26;4.32;;;3.67;;
19030;SDS011;9648;51.130;13.978;2022-07-25T02:59:53;4.25;;;3.50;;
19030;SDS011;9648;51.130;13.978;2022-07-25T03:02:20;4.32;;;3.60;;
19030;SDS011;9648;51.130;13.978;2022-07-25T03:04:47;4.25;;;3.78;;
19030;SDS011;9648;51.130;13.978;2022-07-25T03:07:14;4.00;;;3.60;;
19030;SDS011;9648;51.130;13.978;2022-07-25T03:09:41;4.15;;;3.50;;
19030;SDS011;9648;51.130;13.978;2022-07-25T03:12:07;4.32;;;3.47;;
19030;SDS011;9648;51.130;13.978;2022-07-25T03:14:34;4.30;;;3.70;;
19030;SDS011;9648;51.130;13.978;2022-07-25T03:17:01;4.78;;;3.88;;
19030;SDS011;9648;51.130;13.978;2022-07-25T03:19:28;4.53;;;3.67;;
19030;SDS011;9648;51.130;13.978;2022-07-25T03:21:55;4.05;;;3.50;;
19030;SDS011;9648;51.130;13.978;2022-07-25T03:24:22;4.22;;;3.67;;
19030;SDS011;9648;51.130;13.978;2022-07-25T03:26:49;4.15;;;3.75;;
19030;SDS011;9648;51.130;13.978;2022-07-25T03:29:15;5.60;;;3.90;;
19030;SDS011;9648;51.130;13.978;2022-07-25T03:31:42;5.18;;;3.75;;
19030;SDS011;9648;51.130;13.978;2022-07-25T03:34:09;4.60;;;3.45;;
19030;SDS011;9648;51.130;13.978;2022-07-25T03:36:35;4.57;;;3.38;;
19030;SDS011;9648;51.130;13.978;2022-07-25T03:39:03;4.88;;;3.63;;
19030;SDS011;9648;51.130;13.978;2022-07-25T03:41:30;5.35;;;3.90;;
19030;SDS011;9648;51.130;13.978;2022-07-25T03:43:56;5.22;;;3.85;;
19030;SDS011;9648;51.130;13.978;2022-07-25T03:46:23;4.60;;;3.92;;
19030;SDS011;9648;51.130;13.978;2022-07-25T03:48:50;4.75;;;4.00;;
19030;SDS011;9648;51.130;13.978;2022-07-25T03:51:16;4.63;;;3.90;;
19030;SDS011;9648;51.130;13.978;2022-07-25T03:53:43;4.57;;;3.80;;
19030;SDS011;9648;51.130;13.978;2022-07-25T03:56:29;4.65;;;3.80;;
19030;SDS011;9648;51.130;13.978;2022-07-25T03:58:57;4.15;;;3.70;;
19030;SDS011;9648;51.130;13.978;2022-07-25T04:01:24;4.85;;;3.88;;
19030;SDS011;9648;51.130;13.978;2022-07-25T04:03:50;4.53;;;3.92;;
19030;SDS011;9648;51.130;13.978;2022-07-25T04:06:17;6.07;;;4.10;;
19030;SDS011;9648;51.130;13.978;2022-07-25T04:08:44;4.78;;;4.00;;
19030;SDS011;9648;51.130;13.978;2022-07-25T04:11:11;4.20;;;3.67;;
19030;SDS011;9648;51.130;13.978;2022-07-25T04:13:39;4.93;;;4.15;;
19030;SDS011;9648;51.130;13.978;2022-07-25T04:16:06;5.50;;;4.50;;
19030;SDS011;9648;51.130;13.978;2022-07-25T04:18:33;6.20;;;4.35;;
19030;SDS011;9648;51.130;13.978;2022-07-25T04:20:59;5.50;;;4.37;;
19030;SDS011;9648;51.130;13.978;2022-07-25T04:23:26;4.85;;;4.35;;
19030;SDS011;9648;51.130;13.978;2022-07-25T04:25:53;5.20;;;4.30;;
19030;SDS011;9648;51.130;13.978;2022-07-25T04:28:20;6.25;;;4.47;;
19030;SDS011;9648;51.130;13.978;2022-07-25T04:30:48;5.68;;;4.32;;
19030;SDS011;9648;51.130;13.978;2022-07-25T04:33:15;6.77;;;4.27;;
19030;SDS011;9648;51.130;13.978;2022-07-25T04:35:42;4.53;;;3.80;;
19030;SDS011;9648;51.130;13.978;2022-07-25T04:38:09;5.63;;;4.00;;
19030;SDS011;9648;51.130;13.978;2022-07-25T04:40:35;5.03;;;3.97;;
19030;SDS011;9648;51.130;13.978;2022-07-25T04:43:02;5.07;;;3.83;;
19030;SDS011;9648;51.130;13.978;2022-07-25T04:45:29;4.65;;;3.92;;
19030;SDS011;9648;51.130;13.978;2022-07-25T04:47:58;6.13;;;4.03;;
19030;SDS011;9648;51.130;13.978;2022-07-25T04:50:24;5.13;;;3.45;;
19030;SDS011;9648;51.130;13.978;2022-07-25T04:52:51;4.47;;;3.50;;
19030;SDS011;9648;51.130;13.978;2022-07-25T04:55:18;5.03;;;3.60;;
19030;SDS011;9648;51.130;13.978;2022-07-25T04:57:45;5.72;;;3.60;;
19030;SDS011;9648;51.130;13.978;2022-07-25T05:00:12;5.15;;;3.70;;
19030;SDS011;9648;51.130;13.978;2022-07-25T05:02:40;4.10;;;3.67;;
19030;SDS011;9648;51.130;13.978;2022-07-25T05:05:09;4.18;;;3.75;;
19030;SDS011;9648;51.130;13.978;2022-07-25T05:07:35;4.87;;;4.10;;
19030;SDS011;9648;51.130;13.978;2022-07-25T05:10:02;5.53;;;4.25;;
19030;SDS011;9648;51.130;13.978;2022-07-25T05:12:29;5.15;;;4.30;;
19030;SDS011;9648;51.130;13.978;2022-07-25T05:14:56;5.40;;;4.28;;
19030;SDS011;9648;51.130;13.978;2022-07-25T05:17:23;5.83;;;4.40;;
19030;SDS011;9648;51.130;13.978;2022-07-25T05:19:49;6.30;;;4.75;;
19030;SDS011;9648;51.130;13.978;2022-07-25T05:22:17;4.72;;;4.20;;
19030;SDS011;9648;51.130;13.978;2022-07-25T05:24:44;7.00;;;4.80;;
19030;SDS011;9648;51.130;13.978;2022-07-25T05:27:10;6.78;;;5.22;;
19030;SDS011;9648;51.130;13.978;2022-07-25T05:29:37;7.35;;;5.32;;
19030;SDS011;9648;51.130;13.978;2022-07-25T05:32:04;6.43;;;5.35;;
19030;SDS011;9648;51.130;13.978;2022-07-25T05:34:31;9.73;;;5.50;;
19030;SDS011;9648;51.130;13.978;2022-07-25T05:36:57;7.38;;;5.55;;
19030;SDS011;9648;51.130;13.978;2022-07-25T05:39:25;7.57;;;5.80;;
19030;SDS011;9648;51.130;13.978;2022-07-25T05:41:52;8.20;;;5.90;;
19030;SDS011;9648;51.130;13.978;2022-07-25T05:44:19;7.63;;;5.93;;
19030;SDS011;9648;51.130;13.978;2022-07-25T05:46:45;8.50;;;6.50;;
19030;SDS011;9648;51.130;13.978;2022-07-25T05:49:12;9.45;;;7.00;;
19030;SDS011;9648;51.130;13.978;2022-07-25T05:51:39;10.68;;;7.50;;
19030;SDS011;9648;51.130;13.978;2022-07-25T05:54:06;10.57;;;7.50;;
19030;SDS011;9648;51.130;13.978;2022-07-25T05:56:34;10.47;;;8.03;;
19030;SDS011;9648;51.130;13.978;2022-07-25T05:59:01;10.77;;;8.40;;
19030;SDS011;9648;51.130;13.978;2022-07-25T06:01:27;13.38;;;9.40;;
19030;SDS011;9648;51.130;13.978;2022-07-25T06:03:54;13.02;;;9.43;;
19030;SDS011;9648;51.130;13.978;2022-07-25T06:06:21;13.80;;;9.32;;
19030;SDS011;9648;51.130;13.978;2022-07-25T06:08:47;14.45;;;10.27;;
19030;SDS011;9648;51.130;13.978;2022-07-25T06:11:14;13.40;;;9.25;;
19030;SDS011;9648;51.130;13.978;2022-07-25T06:13:42;12.15;;;9.68;;
19030;SDS011;9648;51.130;13.978;2022-07-25T06:16:09;14.10;;;9.90;;
19030;SDS011;9648;51.130;13.978;2022-07-25T06:18:36;14.50;;;9.63;;
19030;SDS011;9648;51.130;13.978;2022-07-25T06:21:02;12.00;;;9.10;;
19030;SDS011;9648;51.130;13.978;2022-07-25T06:23:30;10.25;;;9.00;;
19030;SDS011;9648;51.130;13.978;2022-07-25T06:25:57;14.27;;;9.73;;
19030;SDS011;9648;51.130;13.978;2022-07-25T06:28:23;12.83;;;9.60;;
19030;SDS011;9648;51.130;13.978;2022-07-25T06:30:51;13.10;;;9.75;;
19030;SDS011;9648;51.130;13.978;2022-07-25T06:33:18;13.88;;;10.73;;
19030;SDS011;9648;51.130;13.978;2022-07-25T06:35:45;12.43;;;9.10;;
19030;SDS011;9648;51.130;13.978;2022-07-25T06:38:11;13.57;;;9.35;;
19030;SDS011;9648;51.130;13.978;2022-07-25T06:40:38;11.80;;;9.02;;
19030;SDS011;9648;51.130;13.978;2022-07-25T06:43:05;13.52;;;9.63;;
19030;SDS011;9648;51.130;13.978;2022-07-25T06:45:31;12.40;;;9.93;;
19030;SDS011;9648;51.130;13.978;2022-07-25T06:48:00;15.20;;;10.35;;
19030;SDS011;9648;51.130;13.978;2022-07-25T06:50:28;14.73;;;9.98;;
19030;SDS011;9648;51.130;13.978;2022-07-25T06:52:55;12.30;;;9.40;;
19030;SDS011;9648;51.130;13.978;2022-07-25T06:55:22;13.50;;;9.77;;
19030;SDS011;9648;51.130;13.978;2022-07-25T06:57:48;15.43;;;10.20;;
19030;SDS011;9648;51.130;13.978;2022-07-25T07:00:15;12.27;;;9.07;;
19030;SDS011;9648;51.130;13.978;2022-07-25T07:02:46;14.75;;;10.18;;
19030;SDS011;9648;51.130;13.978;2022-07-25T07:05:15;12.68;;;9.55;;
19030;SDS011;9648;51.130;13.978;2022-07-25T07:07:42;12.50;;;9.77;;
19030;SDS011;9648;51.130;13.978;2022-07-25T07:10:09;12.75;;;9.95;;
19030;SDS011;9648;51.130;13.978;2022-07-25T07:12:36;12.73;;;9.52;;
19030;SDS011;9648;51.130;13.978;2022-07-25T07:15:03;15.10;;;10.15;;
19030;SDS011;9648;51.130;13.978;2022-07-25T07:17:30;14.88;;;10.20;;
19030;SDS011;9648;51.130;13.978;2022-07-25T07:19:57;13.43;;;9.43;;
19030;SDS011;9648;51.130;13.978;2022-07-25T07:22:25;13.17;;;9.63;;
19030;SDS011;9648;51.130;13.978;2022-07-25T07:24:51;13.05;;;9.80;;
19030;SDS011;9648;51.130;13.978;2022-07-25T07:27:18;12.20;;;9.23;;
19030;SDS011;9648;51.130;13.978;2022-07-25T07:29:47;14.15;;;10.00;;
19030;SDS011;9648;51.130;13.978;2022-07-25T07:32:14;13.40;;;9.20;;
19030;SDS011;9648;51.130;13.978;2022-07-25T07:34:41;10.60;;;8.33;;
19030;SDS011;9648;51.130;13.978;2022-07-25T07:37:08;12.30;;;8.95;;
19030;SDS011;9648;51.130;13.978;2022-07-25T07:39:36;9.95;;;7.57;;
19030;SDS011;9648;51.130;13.978;2022-07-25T07:42:03;9.43;;;6.97;;
19030;SDS011;9648;51.130;13.978;2022-07-25T07:44:30;7.57;;;6.10;;
19030;SDS011;9648;51.130;13.978;2022-07-25T07:46:56;9.32;;;5.45;;
19030;SDS011;9648;51.130;13.978;2022-07-25T07:49:26;6.00;;;4.93;;
19030;SDS011;9648;51.130;13.978;2022-07-25T07:51:53;6.18;;;5.03;;
19030;SDS011;9648;51.130;13.978;2022-07-25T07:54:20;6.63;;;5.13;;
19030;SDS011;9648;51.130;13.978;2022-07-25T07:57:05;6.90;;;4.95;;
19030;SDS011;9648;51.130;13.978;2022-07-25T07:59:32;7.60;;;5.20;;
19030;SDS011;9648;51.130;13.978;2022-07-25T08:01:59;6.47;;;4.90;;
19030;SDS011;9648;51.130;13.978;2022-07-25T08:04:25;8.07;;;5.10;;
19030;SDS011;9648;51.130;13.978;2022-07-25T08:06:52;11.48;;;4.90;;
19030;SDS011;9648;51.130;13.978;2022-07-25T08:09:19;7.10;;;4.95;;
19030;SDS011;9648;51.130;13.978;2022-07-25T08:11:45;7.47;;;4.82;;
19030;SDS011;9648;51.130;13.978;2022-07-25T08:14:13;6.70;;;4.80;;
19030;SDS011;9648;51.130;13.978;2022-07-25T08:16:40;7.38;;;5.13;;
19030;SDS011;9648;51.130;13.978;2022-07-25T08:19:07;6.90;;;5.47;;
19030;SDS011;9648;51.130;13.978;2022-07-25T08:21:33;7.82;;;4.90;;
19030;SDS011;9648;51.130;13.978;2022-07-25T08:24:00;5.20;;;4.70;;
19030;SDS011;9648;51.130;13.978;2022-07-25T08:26:27;9.52;;;5.35;;
19030;SDS011;9648;51.130;13.978;2022-07-25T08:28:55;7.88;;;4.97;;
19030;SDS011;9648;51.130;13.978;2022-07-25T08:31:23;6.93;;;5.05;;
19030;SDS011;9648;51.130;13.978;2022-07-25T08:33:49;5.57;;;4.77;;
19030;SDS011;9648;51.130;13.978;2022-07-25T08:36:16;6.80;;;4.80;;
19030;SDS011;9648;51.130;13.978;2022-07-25T08:38:43;6.30;;;4.88;;
19030;SDS011;9648;51.130;13.978;2022-07-25T08:41:10;7.63;;;4.80;;
19030;SDS011;9648;51.130;13.978;2022-07-25T08:43:37;7.05;;;4.78;;
19030;SDS011;9648;51.130;13.978;2022-07-25T08:46:04;5.88;;;4.50;;
19030;SDS011;9648;51.130;13.978;2022-07-25T08:48:33;6.25;;;4.68;;
19030;SDS011;9648;51.130;13.978;2022-07-25T08:51:01;5.28;;;4.78;;
19030;SDS011;9648;51.130;13.978;2022-07-25T08:53:28;5.45;;;4.30;;
19030;SDS011;9648;51.130;13.978;2022-07-25T08:55:55;5.32;;;4.35;;
19030;SDS011;9648;51.130;13.978;2022-07-25T08:58:22;6.22;;;5.00;;
19030;SDS011;9648;51.130;13.978;2022-07-25T09:00:48;7.10;;;4.70;;
19030;SDS011;9648;51.130;13.978;2022-07-25T09:03:15;5.00;;;4.50;;
19030;SDS011;9648;51.130;13.978;2022-07-25T09:05:43;5.03;;;4.50;;
19030;SDS011;9648;51.130;13.978;2022-07-25T09:08:11;4.28;;;3.88;;
19030;SDS011;9648;51.130;13.978;2022-07-25T09:10:43;4.60;;;4.20;;
19030;SDS011;9648;51.130;13.978;2022-07-25T09:13:11;5.45;;;4.28;;
19030;SDS011;9648;51.130;13.978;2022-07-25T09:15:40;5.87;;;4.50;;
19030;SDS011;9648;51.130;13.978;2022-07-25T09:18:10;7.73;;;5.03;;
19030;SDS011;9648;51.130;13.978;2022-07-25T09:20:39;6.03;;;4.53;;
19030;SDS011;9648;51.130;13.978;2022-07-25T09:23:09;7.40;;;4.40;;
19030;SDS011;9648;51.130;13.978;2022-07-25T09:25:38;8.13;;;4.60;;
19030;SDS011;9648;51.130;13.978;2022-07-25T09:28:12;6.45;;;4.65;;
19030;SDS011;9648;51.130;13.978;2022-07-25T09:30:51;5.20;;;4.50;;
19030;SDS011;9648;51.130;13.978;2022-07-25T09:33:19;5.63;;;4.43;;
19030;SDS011;9648;51.130;13.978;2022-07-25T09:35:46;5.88;;;4.80;;
19030;SDS011;9648;51.130;13.978;2022-07-25T09:38:15;6.32;;;4.50;;
19030;SDS011;9648;51.130;13.978;2022-07-25T09:40:52;4.90;;;4.40;;
19030;SDS011;9648;51.130;13.978;2022-07-25T09:43:20;5.30;;;4.53;;
19030;SDS011;9648;51.130;13.978;2022-07-25T09:45:48;6.57;;;4.63;;
19030;SDS011;9648;51.130;13.978;2022-07-25T09:48:16;6.13;;;4.68;;
19030;SDS011;9648;51.130;13.978;2022-07-25T09:50:44;5.28;;;4.60;;
19030;SDS011;9648;51.130;13.978;2022-07-25T09:53:11;7.43;;;4.68;;
19030;SDS011;9648;51.130;13.978;2022-07-25T09:55:39;5.85;;;4.60;;
19030;SDS011;9648;51.130;13.978;2022-07-25T09:58:06;4.80;;;4.30;;
19030;SDS011;9648;51.130;13.978;2022-07-25T10:00:33;6.05;;;4.72;;
19030;SDS011;9648;51.130;13.978;2022-07-25T10:03:04;7.85;;;4.35;;
19030;SDS011;9648;51.130;13.978;2022-07-25T10:05:45;5.45;;;4.60;;
19030;SDS011;9648;51.130;13.978;2022-07-25T10:08:17;5.35;;;4.57;;
19030;SDS011;9648;51.130;13.978;2022-07-25T10:10:45;5.40;;;4.40;;
19030;SDS011;9648;51.130;13.978;2022-07-25T10:13:13;5.27;;;4.50;;
19030;SDS011;9648;51.130;13.978;2022-07-25T10:15:43;5.72;;;4.53;;
19030;SDS011;9648;51.130;13.978;2022-07-25T10:18:11;6.95;;;4.65;;
19030;SDS011;9648;51.130;13.978;2022-07-25T10:20:39;6.23;;;4.60;;
19030;SDS011;9648;51.130;13.978;2022-07-25T10:23:15;5.55;;;4.50;;
19030;SDS011;9648;51.130;13.978;2022-07-25T10:25:57;5.35;;;4.50;;
19030;SDS011;9648;51.130;13.978;2022-07-25T10:28:34;6.35;;;4.60;;
19030;SDS011;9648;51.130;13.978;2022-07-25T10:31:13;5.47;;;4.30;;
19030;SDS011;9648;51.130;13.978;2022-07-25T10:33:46;5.00;;;4.38;;
19030;SDS011;9648;51.130;13.978;2022-07-25T10:36:15;6.00;;;4.60;;
19030;SDS011;9648;51.130;13.978;2022-07-25T10:38:44;7.38;;;4.60;;
19030;SDS011;9648;51.130;13.978;2022-07-25T10:41:14;6.13;;;4.47;;
19030;SDS011;9648;51.130;13.978;2022-07-25T10:43:42;6.38;;;4.40;;
19030;SDS011;9648;51.130;13.978;2022-07-25T10:46:10;6.10;;;4.68;;
19030;SDS011;9648;51.130;13.978;2022-07-25T10:48:39;5.25;;;4.30;;
19030;SDS011;9648;51.130;13.978;2022-07-25T10:51:07;7.90;;;4.45;;
19030;SDS011;9648;51.130;13.978;2022-07-25T10:53:35;6.83;;;4.50;;
19030;SDS011;9648;51.130;13.978;2022-07-25T10:56:07;6.32;;;4.68;;
19030;SDS011;9648;51.130;13.978;2022-07-25T10:58:43;5.43;;;4.35;;
19030;SDS011;9648;51.130;13.978;2022-07-25T11:01:12;4.75;;;4.28;;
19030;SDS011;9648;51.130;13.978;2022-07-25T11:03:40;7.70;;;4.90;;
19030;SDS011;9648;51.130;13.978;2022-07-25T11:06:10;6.43;;;4.47;;
19030;SDS011;9648;51.130;13.978;2022-07-25T11:08:37;5.82;;;4.53;;
19030;SDS011;9648;51.130;13.978;2022-07-25T11:11:05;5.33;;;4.47;;
19030;SDS011;9648;51.130;13.978;2022-07-25T11:13:35;7.22;;;4.13;;
19030;SDS011;9648;51.130;13.978;2022-07-25T11:16:04;5.30;;;4.40;;
19030;SDS011;9648;51.130;13.978;2022-07-25T11:18:32;7.00;;;4.30;;
19030;SDS011;9648;51.130;13.978;2022-07-25T11:21:01;4.82;;;4.32;;
19030;SDS011;9648;51.130;13.978;2022-07-25T11:23:29;5.38;;;4.53;;
19030;SDS011;9648;51.130;13.978;2022-07-25T11:26:04;5.75;;;4.50;;
19030;SDS011;9648;51.130;13.978;2022-07-25T11:28:40;5.53;;;4.50;;
19030;SDS011;9648;51.130;13.978;2022-07-25T11:31:10;6.47;;;4.43;;
19030;SDS011;9648;51.130;13.978;2022-07-25T11:33:39;6.00;;;4.20;;
19030;SDS011;9648;51.130;13.978;2022-07-25T11:36:08;5.05;;;4.30;;
19030;SDS011;9648;51.130;13.978;2022-07-25T11:38:36;4.65;;;4.18;;
19030;SDS011;9648;51.130;13.978;2022-07-25T11:41:04;4.60;;;4.20;;
19030;SDS011;9648;51.130;13.978;2022-07-25T11:43:31;6.13;;;4.63;;
19030;SDS011;9648;51.130;13.978;2022-07-25T11:45:59;6.50;;;4.65;;
19030;SDS011;9648;51.130;13.978;2022-07-25T11:48:35;4.95;;;4.18;;
19030;SDS011;9648;51.130;13.978;2022-07-25T11:51:07;6.10;;;4.00;;
19030;SDS011;9648;51.130;13.978;2022-07-25T11:53:41;5.25;;;4.00;;
19030;SDS011;9648;51.130;13.978;2022-07-25T11:56:09;4.90;;;3.92;;
19030;SDS011;9648;51.130;13.978;2022-07-25T11:58:40;7.80;;;4.60;;
19030;SDS011;9648;51.130;13.978;2022-07-25T12:01:12;7.38;;;4.22;;
19030;SDS011;9648;51.130;13.978;2022-07-25T12:03:41;5.25;;;3.90;;
19030;SDS011;9648;51.130;13.978;2022-07-25T12:06:09;6.22;;;3.60;;
19030;SDS011;9648;51.130;13.978;2022-07-25T12:08:38;7.30;;;4.00;;
19030;SDS011;9648;51.130;13.978;2022-07-25T12:11:26;6.15;;;4.10;;
19030;SDS011;9648;51.130;13.978;2022-07-25T12:14:08;7.25;;;4.10;;
19030;SDS011;9648;51.130;13.978;2022-07-25T12:16:38;6.07;;;4.13;;
19030;SDS011;9648;51.130;13.978;2022-07-25T12:19:24;4.93;;;4.30;;
19030;SDS011;9648;51.130;13.978;2022-07-25T12:21:51;4.63;;;3.83;;
19030;SDS011;9648;51.130;13.978;2022-07-25T12:24:19;5.68;;;4.00;;
19030;SDS011;9648;51.130;13.978;2022-07-25T12:26:46;6.00;;;4.10;;
19030;SDS011;9648;51.130;13.978;2022-07-25T12:29:13;4.35;;;3.83;;
19030;SDS011;9648;51.130;13.978;2022-07-25T12:31:40;4.93;;;4.05;;
19030;SDS011;9648;51.130;13.978;2022-07-25T12:34:06;6.35;;;4.05;;
19030;SDS011;9648;51.130;13.978;2022-07-25T12:36:34;9.88;;;4.60;;
19030;SDS011;9648;51.130;13.978;2022-07-25T12:39:07;6.50;;;4.07;;
19030;SDS011;9648;51.130;13.978;2022-07-25T12:41:34;5.43;;;4.13;;
19030;SDS011;9648;51.130;13.978;2022-07-25T12:44:01;8.05;;;4.78;;
19030;SDS011;9648;51.130;13.978;2022-07-25T12:46:28;5.97;;;4.40;;
19030;SDS011;9648;51.130;13.978;2022-07-25T12:48:54;6.53;;;4.40;;
19030;SDS011;9648;51.130;13.978;2022-07-25T12:51:21;5.63;;;4.20;;
19030;SDS011;9648;51.130;13.978;2022-07-25T12:53:49;7.37;;;4.53;;
19030;SDS011;9648;51.130;13.978;2022-07-25T12:56:16;7.22;;;4.22;;
19030;SDS011;9648;51.130;13.978;2022-07-25T12:58:42;9.00;;;4.38;;
19030;SDS011;9648;51.130;13.978;2022-07-25T13:01:09;8.25;;;4.32;;
19030;SDS011;9648;51.130;13.978;2022-07-25T13:03:37;6.60;;;4.37;;
19030;SDS011;9648;51.130;13.978;2022-07-25T13:06:04;8.63;;;4.25;;
19030;SDS011;9648;51.130;13.978;2022-07-25T13:08:31;8.00;;;4.43;;
19030;SDS011;9648;51.130;13.978;2022-07-25T13:11:03;5.50;;;3.95;;
19030;SDS011;9648;51.130;13.978;2022-07-25T13:13:29;7.03;;;4.45;;
19030;SDS011;9648;51.130;13.978;2022-07-25T13:15:56;9.25;;;4.30;;
19030;SDS011;9648;51.130;13.978;2022-07-25T13:18:24;5.18;;;4.13;;
19030;SDS011;9648;51.130;13.978;2022-07-25T13:20:50;5.82;;;4.60;;
19030;SDS011;9648;51.130;13.978;2022-07-25T13:23:17;5.50;;;4.20;;
19030;SDS011;9648;51.130;13.978;2022-07-25T13:25:43;5.90;;;4.43;;
19030;SDS011;9648;51.130;13.978;2022-07-25T13:28:11;5.15;;;4.28;;
19030;SDS011;9648;51.130;13.978;2022-07-25T13:30:38;4.80;;;4.28;;
19030;SDS011;9648;51.130;13.978;2022-07-25T13:33:05;6.57;;;4.47;;
19030;SDS011;9648;51.130;13.978;2022-07-25T13:35:34;6.97;;;4.70;;
19030;SDS011;9648;51.130;13.978;2022-07-25T13:38:02;8.25;;;4.30;;
19030;SDS011;9648;51.130;13.978;2022-07-25T13:40:28;5.03;;;4.20;;
19030;SDS011;9648;51.130;13.978;2022-07-25T13:42:55;5.45;;;4.30;;
19030;SDS011;9648;51.130;13.978;2022-07-25T13:45:23;6.18;;;4.78;;
19030;SDS011;9648;51.130;13.978;2022-07-25T13:47:50;5.13;;;4.35;;
19030;SDS011;9648;51.130;13.978;2022-07-25T13:50:17;6.28;;;4.38;;
19030;SDS011;9648;51.130;13.978;2022-07-25T13:52:43;4.60;;;4.20;;
19030;SDS011;9648;51.130;13.978;2022-07-25T13:55:10;4.80;;;4.30;;
19030;SDS011;9648;51.130;13.978;2022-07-25T13:57:37;9.68;;;4.82;;
19030;SDS011;9648;51.130;13.978;2022-07-25T14:00:04;7.47;;;4.50;;
19030;SDS011;9648;51.130;13.978;2022-07-25T14:02:33;5.43;;;4.80;;
19030;SDS011;9648;51.130;13.978;2022-07-25T14:04:59;5.80;;;4.22;;
19030;SDS011;9648;51.130;13.978;2022-07-25T14:07:26;5.78;;;4.47;;
19030;SDS011;9648;51.130;13.978;2022-07-25T14:09:53;5.00;;;4.20;;
19030;SDS011;9648;51.130;13.978;2022-07-25T14:12:19;5.63;;;4.60;;
19030;SDS011;9648;51.130;13.978;2022-07-25T14:14:46;7.90;;;4.50;;
19030;SDS011;9648;51.130;13.978;2022-07-25T14:17:13;8.13;;;4.72;;
19030;SDS011;9648;51.130;13.978;2022-07-25T14:19:41;8.25;;;4.68;;
19030;SDS011;9648;51.130;13.978;2022-07-25T14:22:07;5.72;;;4.32;;
19030;SDS011;9648;51.130;13.978;2022-07-25T14:24:34;6.22;;;4.45;;
19030;SDS011;9648;51.130;13.978;2022-07-25T14:27:01;5.17;;;4.30;;
19030;SDS011;9648;51.130;13.978;2022-07-25T14:29:28;5.47;;;4.78;;
19030;SDS011;9648;51.130;13.978;2022-07-25T14:31:54;4.97;;;4.38;;
19030;SDS011;9648;51.130;13.978;2022-07-25T14:34:21;6.35;;;4.70;;
19030;SDS011;9648;51.130;13.978;2022-07-25T14:36:49;5.00;;;4.40;;
19030;SDS011;9648;51.130;13.978;2022-07-25T14:39:16;6.60;;;4.15;;
19030;SDS011;9648;51.130;13.978;2022-07-25T14:41:42;6.40;;;4.25;;
19030;SDS011;9648;51.130;13.978;2022-07-25T14:44:09;9.23;;;4.38;;
19030;SDS011;9648;51.130;13.978;2022-07-25T14:46:36;4.57;;;4.07;;
19030;SDS011;9648;51.130;13.978;2022-07-25T14:49:02;8.65;;;4.50;;